Time;durP1;ratioP1;P1;durP2;ratioP2;P2;SDS_P1;SDS_P2;PMS_P1;PMS_P2;Temp;Humidity;BMP_temperature;BMP_pressure;BME280_temperature;BME280_humidity;BME280_pressure;Samples;Min_cycle;Max_cycle;Signal;HPM_P1;HPM_P2
2022/07/08 00:01:01;;;;;;;6.50;0.90;;;15.30;99.90;;;;;;5090920;28;20038;-50
2022/07/08 00:03:27;;;;;;;8.00;0.80;;;15.30;99.90;;;;;;5088241;28;20052;-46
2022/07/08 00:05:53;;;;;;;6.10;1.02;;;15.30;99.90;;;;;;5089834;28;20039;-47
2022/07/08 00:08:19;;;;;;;7.55;1.40;;;15.30;99.90;;;;;;5091141;28;20118;-46
2022/07/08 00:10:45;;;;;;;9.60;0.82;;;15.30;99.90;;;;;;5077355;28;20036;-49
2022/07/08 00:13:11;;;;;;;8.82;1.13;;;15.30;99.90;;;;;;5088566;28;20085;-49
2022/07/08 00:15:36;;;;;;;7.35;1.00;;;15.30;99.90;;;;;;5090375;28;20039;-46
2022/07/08 00:18:02;;;;;;;4.07;1.00;;;15.20;99.90;;;;;;5089689;28;20036;-49
2022/07/08 00:20:28;;;;;;;6.00;1.17;;;15.30;99.90;;;;;;5081268;28;20048;-47
2022/07/08 00:22:55;;;;;;;8.05;0.85;;;15.20;99.90;;;;;;5083831;28;20053;-50
2022/07/08 00:25:21;;;;;;;5.82;0.75;;;15.20;99.90;;;;;;5075241;28;20041;-46
2022/07/08 00:27:46;;;;;;;5.07;0.80;;;15.20;99.90;;;;;;5082398;28;20051;-48
2022/07/08 00:30:12;;;;;;;5.32;0.65;;;15.20;99.90;;;;;;5078868;28;20080;-53
2022/07/08 00:32:38;;;;;;;4.47;1.25;;;15.20;99.90;;;;;;5084354;28;20063;-51
2022/07/08 00:35:05;;;;;;;9.75;1.75;;;15.20;99.90;;;;;;5068847;28;20090;-46
2022/07/08 00:37:31;;;;;;;8.50;0.63;;;15.10;99.90;;;;;;5069557;28;20093;-49
2022/07/08 00:39:56;;;;;;;4.95;0.40;;;15.10;99.90;;;;;;5068601;28;20112;-50
2022/07/08 00:42:22;;;;;;;6.13;0.70;;;15.10;99.90;;;;;;5084833;28;20032;-49
2022/07/08 00:44:47;;;;;;;8.07;1.60;;;15.00;99.90;;;;;;5079599;28;20082;-47
2022/07/08 00:47:13;;;;;;;7.28;0.75;;;15.00;99.90;;;;;;5068820;28;20036;-46
2022/07/08 00:49:40;;;;;;;10.15;1.20;;;15.00;99.90;;;;;;5069941;28;20044;-50
2022/07/08 00:52:06;;;;;;;7.03;1.00;;;15.00;99.90;;;;;;5069427;28;20044;-51
2022/07/08 00:54:32;;;;;;;8.25;0.75;;;14.90;99.90;;;;;;5073220;28;20115;-47
2022/07/08 00:56:58;;;;;;;7.78;1.15;;;14.90;99.90;;;;;;5089230;28;20260;-46
2022/07/08 00:59:24;;;;;;;11.95;2.40;;;14.90;99.90;;;;;;5089721;28;20055;-50
2022/07/08 01:01:50;;;;;;;6.15;1.38;;;14.90;99.90;;;;;;5089101;28;20409;-48
2022/07/08 01:04:15;;;;;;;6.72;1.05;;;14.90;99.90;;;;;;5089101;28;20040;-47
2022/07/08 01:06:41;;;;;;;6.28;0.70;;;14.90;99.90;;;;;;5071213;28;20041;-50
2022/07/08 01:09:07;;;;;;;5.97;1.00;;;14.80;99.90;;;;;;5069381;28;20166;-52
2022/07/08 01:11:33;;;;;;;7.57;0.65;;;14.80;99.90;;;;;;5077364;28;20040;-51
2022/07/08 01:13:58;;;;;;;9.45;1.25;;;14.80;99.90;;;;;;5088859;28;20040;-47
2022/07/08 01:16:24;;;;;;;5.95;0.50;;;14.70;99.90;;;;;;5086212;28;20032;-46
2022/07/08 01:18:50;;;;;;;6.85;0.80;;;14.70;99.90;;;;;;5089980;28;20172;-46
2022/07/08 01:21:15;;;;;;;14.13;0.98;;;14.60;99.90;;;;;;5089017;28;20040;-51
2022/07/08 01:23:41;;;;;;;4.93;0.90;;;14.60;99.90;;;;;;5088953;28;20028;-51
2022/07/08 01:26:12;;;;;;;4.57;0.88;;;14.60;99.90;;;;;;5080825;28;20048;-46
2022/07/08 01:28:39;;;;;;;7.32;1.50;;;14.60;99.90;;;;;;5069208;28;20044;-49
2022/07/08 01:31:05;;;;;;;7.15;0.95;;;14.50;99.90;;;;;;5068809;28;20563;-46
2022/07/08 01:33:31;;;;;;;8.35;1.05;;;14.50;99.90;;;;;;5068487;28;20450;-51
2022/07/08 01:35:56;;;;;;;7.55;1.00;;;14.40;99.90;;;;;;5070528;28;20079;-47
2022/07/08 01:38:22;;;;;;;14.80;1.13;;;14.40;99.90;;;;;;5085156;28;20101;-50
2022/07/08 01:40:48;;;;;;;9.57;1.83;;;14.40;99.90;;;;;;5084944;28;20067;-47
2022/07/08 01:43:13;;;;;;;14.13;1.73;;;14.30;99.90;;;;;;5083029;28;20499;-49
2022/07/08 01:45:39;;;;;;;5.82;1.00;;;14.30;99.90;;;;;;5093295;28;20119;-52
2022/07/08 01:48:05;;;;;;;3.88;0.73;;;14.30;99.90;;;;;;5074384;28;20098;-47
2022/07/08 01:50:31;;;;;;;7.90;1.52;;;14.30;99.90;;;;;;5072707;28;20459;-47
2022/07/08 01:52:57;;;;;;;9.38;1.40;;;14.20;99.90;;;;;;5071815;28;20503;-47
2022/07/08 01:55:22;;;;;;;8.02;1.10;;;14.20;99.90;;;;;;5072683;28;20071;-51
2022/07/08 01:57:48;;;;;;;10.27;1.55;;;14.10;99.90;;;;;;5073889;28;20582;-51
2022/07/08 02:00:14;;;;;;;3.88;0.93;;;14.10;99.90;;;;;;5072593;28;20043;-46
2022/07/08 02:02:40;;;;;;;4.72;1.08;;;14.10;99.90;;;;;;5072457;28;20040;-46
2022/07/08 02:05:06;;;;;;;4.55;1.27;;;14.10;99.90;;;;;;5072178;28;20036;-51
2022/07/08 02:07:32;;;;;;;7.88;1.33;;;14.00;99.90;;;;;;5076115;28;20036;-51
2022/07/08 02:09:58;;;;;;;;;;;13.90;99.90;;;;;;5093189;28;20081;-47
2022/07/08 02:12:23;;;;;;;8.07;1.58;;;13.90;99.90;;;;;;5092088;28;20384;-46
2022/07/08 02:14:51;;;;;;;10.85;2.10;;;13.90;99.90;;;;;;5091826;28;20044;-52
2022/07/08 02:17:18;;;;;;;3.42;1.20;;;13.80;99.90;;;;;;5092141;28;20409;-46
2022/07/08 02:19:44;;;;;;;9.27;1.08;;;13.80;99.90;;;;;;5073138;28;20044;-52
2022/07/08 02:22:10;;;;;;;9.82;2.67;;;13.70;99.90;;;;;;5074950;28;20413;-47
2022/07/08 02:24:37;;;;;;;5.55;1.88;;;13.70;99.90;;;;;;5091020;28;20036;-47
2022/07/08 02:27:03;;;;;;;;;;;13.60;99.90;;;;;;5072500;28;20087;-51
2022/07/08 02:29:28;;;;;;;10.93;1.45;;;13.50;99.90;;;;;;5086339;28;19959;-50
2022/07/08 02:31:54;;;;;;;7.30;1.17;;;13.50;99.90;;;;;;5091952;28;20044;-47
2022/07/08 02:34:19;;;;;;;5.43;0.95;;;13.50;99.90;;;;;;5091461;28;20044;-46
2022/07/08 02:36:45;;;;;;;4.53;0.68;;;13.40;99.90;;;;;;5091821;28;20075;-46
2022/07/08 02:39:12;;;;;;;7.40;1.00;;;13.30;99.90;;;;;;5088413;28;20038;-49
2022/07/08 02:41:38;;;;;;;9.23;1.40;;;13.30;99.90;;;;;;5091336;28;20036;-48
2022/07/08 02:44:05;;;;;;;;;;;13.30;99.90;;;;;;5082491;28;20500;-47
2022/07/08 02:46:30;;;;;;;5.93;0.75;;;13.20;99.90;;;;;;5069678;28;19916;-49
2022/07/08 02:48:56;;;;;;;10.43;1.50;;;13.20;99.90;;;;;;5074403;28;20413;-46
2022/07/08 02:51:22;;;;;;;;;;;13.20;99.90;;;;;;5090962;28;20044;-49
2022/07/08 02:53:48;;;;;;;8.10;1.08;;;13.20;99.90;;;;;;5091199;28;20381;-46
2022/07/08 02:56:13;;;;;;;4.85;1.02;;;13.20;99.90;;;;;;5077666;28;20047;-46
2022/07/08 02:58:39;;;;;;;6.72;1.10;;;13.10;99.90;;;;;;5071753;28;20040;-49
2022/07/08 03:01:04;;;;;;;10.40;1.30;;;13.10;99.90;;;;;;5085266;28;20477;-49
2022/07/08 03:03:30;;;;;;;5.28;0.65;;;13.10;99.90;;;;;;5090789;28;20429;-48
2022/07/08 03:05:56;;;;;;;5.67;1.47;;;13.00;99.90;;;;;;5090678;28;20085;-46
2022/07/08 03:08:22;;;;;;;9.68;1.15;;;13.00;99.90;;;;;;5091420;28;20277;-47
2022/07/08 03:10:47;;;;;;;3.58;0.90;;;13.00;99.90;;;;;;5082280;28;20051;-46
2022/07/08 03:13:13;;;;;;;9.55;0.70;;;13.00;99.90;;;;;;5070859;28;20393;-50
2022/07/08 03:15:38;;;;;;;7.73;1.03;;;13.00;99.90;;;;;;5070410;28;20400;-51
2022/07/08 03:18:04;;;;;;;5.30;0.97;;;13.00;99.90;;;;;;5070512;28;20644;-50
2022/07/08 03:20:29;;;;;;;6.70;1.10;;;13.00;99.90;;;;;;5071776;28;20416;-47
2022/07/08 03:22:55;;;;;;;6.70;1.20;;;13.00;99.90;;;;;;5070702;28;20040;-47
2022/07/08 03:25:21;;;;;;;7.07;1.20;;;13.00;99.90;;;;;;5070476;28;20040;-45
2022/07/08 03:27:48;;;;;;;6.57;0.95;;;13.00;99.90;;;;;;5070778;28;20801;-51
2022/07/08 03:30:14;;;;;;;4.32;1.05;;;13.00;99.90;;;;;;5069528;28;20070;-46
2022/07/08 03:32:40;;;;;;;5.25;1.35;;;13.00;99.90;;;;;;5085980;28;20150;-50
2022/07/08 03:35:06;;;;;;;12.27;1.23;;;12.90;99.90;;;;;;5089526;28;20118;-49
2022/07/08 03:37:31;;;;;;;9.13;2.00;;;13.00;99.90;;;;;;5091039;28;20071;-50
2022/07/08 03:41:19;;;;;;;2.78;0.88;;;12.90;99.90;;;;;;5090494;28;20107;-47
2022/07/08 03:42:42;;;;;;;5.45;1.45;;;12.90;99.90;;;;;;5088821;28;20123;-51
2022/07/08 03:45:08;;;;;;;6.10;1.20;;;12.90;99.90;;;;;;5089845;28;20397;-51
2022/07/08 03:47:34;;;;;;;3.92;1.23;;;12.90;99.90;;;;;;5090393;28;20331;-49
2022/07/08 03:50:00;;;;;;;;;;;12.80;99.90;;;;;;5077163;28;20540;-51
2022/07/08 03:52:25;;;;;;;3.65;0.85;;;12.90;99.90;;;;;;5079673;28;19924;-48
2022/07/08 03:54:51;;;;;;;4.68;1.67;;;12.80;99.90;;;;;;5070449;28;20043;-51
2022/07/08 03:57:16;;;;;;;2.95;0.73;;;12.80;99.90;;;;;;5083848;28;20032;-47
2022/07/08 03:59:42;;;;;;;6.40;1.00;;;12.80;99.90;;;;;;5088410;28;20040;-47
2022/07/08 04:02:08;;;;;;;9.00;1.10;;;12.70;99.90;;;;;;5078321;28;20032;-49
2022/07/08 04:04:34;;;;;;;7.20;1.25;;;12.70;99.90;;;;;;5089434;28;20036;-50
2022/07/08 04:06:59;;;;;;;4.45;0.98;;;12.70;99.90;;;;;;5089480;28;20032;-47
2022/07/08 04:09:25;;;;;;;3.43;0.90;;;12.70;99.90;;;;;;5090582;28;20047;-46
2022/07/08 04:11:50;;;;;;;2.93;0.87;;;12.70;99.90;;;;;;5088669;28;20335;-47
2022/07/08 04:14:16;;;;;;;5.60;1.13;;;12.70;99.90;;;;;;5088822;28;20314;-49
2022/07/08 04:16:41;;;;;;;4.03;1.03;;;12.70;99.90;;;;;;5084970;28;20028;-46
2022/07/08 04:19:07;;;;;;;7.20;1.63;;;12.70;99.90;;;;;;5069184;28;20278;-46
2022/07/08 04:21:33;;;;;;;3.53;1.05;;;12.70;99.90;;;;;;5069927;28;20273;-49
2022/07/08 04:23:59;;;;;;;5.83;1.40;;;12.70;99.90;;;;;;5084191;28;20123;-51
2022/07/08 04:26:31;;;;;;;9.15;1.95;;;12.70;99.90;;;;;;5069250;28;20705;-49
2022/07/08 04:28:57;;;;;;;3.58;1.00;;;12.80;99.90;;;;;;5071885;28;20055;-51
2022/07/08 04:31:22;;;;;;;7.50;1.55;;;12.70;99.90;;;;;;5069287;28;20500;-50
2022/07/08 04:33:48;;;;;;;10.55;1.50;;;12.80;99.90;;;;;;5069160;28;20044;-49
2022/07/08 04:36:14;;;;;;;5.20;1.40;;;12.80;99.90;;;;;;5069248;28;20123;-49
2022/07/08 04:38:39;;;;;;;7.65;1.27;;;12.90;99.90;;;;;;5069162;28;20047;-48
2022/07/08 04:41:05;;;;;;;16.83;1.50;;;12.90;99.90;;;;;;5066673;28;20451;-51
2022/07/08 04:43:30;;;;;;;5.22;1.20;;;12.90;99.90;;;;;;5067999;28;20042;-51
2022/07/08 04:45:56;;;;;;;7.70;1.40;;;12.90;99.90;;;;;;5070778;28;20037;-49
2022/07/08 04:48:21;;;;;;;6.72;2.20;;;13.00;99.90;;;;;;5070825;28;20044;-49
2022/07/08 04:50:47;;;;;;;5.22;0.90;;;13.00;99.90;;;;;;5069578;28;20467;-46
2022/07/08 04:53:12;;;;;;;10.10;2.07;;;13.10;99.90;;;;;;5068775;28;20110;-47
2022/07/08 04:55:38;;;;;;;6.20;1.20;;;13.20;99.90;;;;;;5087587;28;20302;-50
2022/07/08 04:58:05;;;;;;;11.93;2.00;;;13.20;99.90;;;;;;5087885;28;20125;-51
2022/07/08 05:00:32;;;;;;;8.65;1.02;;;13.20;99.90;;;;;;5072646;28;20094;-49
2022/07/08 05:02:58;;;;;;;9.70;1.77;;;13.30;99.90;;;;;;5069745;28;20044;-52
2022/07/08 05:05:24;;;;;;;;;;;13.30;99.90;;;;;;5079658;28;20056;-48
2022/07/08 05:07:51;;;;;;;13.05;2.15;;;13.40;99.90;;;;;;5082132;28;19982;-47
2022/07/08 05:10:18;;;;;;;12.57;2.55;;;13.40;99.90;;;;;;5070045;28;20087;-50
2022/07/08 05:12:44;;;;;;;6.20;1.33;;;13.50;99.90;;;;;;5069129;28;20063;-47
2022/07/08 05:15:11;;;;;;;8.63;1.52;;;13.60;99.90;;;;;;5082240;28;20182;-51
2022/07/08 05:17:37;;;;;;;8.93;1.92;;;13.60;99.90;;;;;;5073457;28;20071;-48
2022/07/08 05:20:04;;;;;;;6.95;1.70;;;13.60;99.90;;;;;;5073392;28;20573;-47
2022/07/08 05:22:29;;;;;;;;;;;13.70;99.90;;;;;;5073157;28;20083;-50
2022/07/08 05:24:55;;;;;;;9.45;1.30;;;13.70;99.90;;;;;;5073557;28;19955;-48
2022/07/08 05:27:20;;;;;;;8.73;1.92;;;13.80;99.90;;;;;;5071323;28;20110;-49
2022/07/08 05:29:46;;;;;;;4.47;1.63;;;13.80;99.90;;;;;;5073168;28;20079;-47
2022/07/08 05:32:12;;;;;;;10.98;1.85;;;13.90;99.90;;;;;;5073039;28;20462;-46
2022/07/08 05:34:39;;;;;;;7.18;1.45;;;14.00;99.90;;;;;;5072159;28;20561;-47
2022/07/08 05:37:06;;;;;;;6.53;1.13;;;14.00;99.90;;;;;;5073873;28;20504;-48
2022/07/08 05:39:31;;;;;;;7.32;0.90;;;14.10;99.90;;;;;;5070237;28;20401;-47
2022/07/08 05:41:57;;;;;;;6.00;0.93;;;14.20;99.90;;;;;;5078902;28;20036;-50
2022/07/08 05:44:23;;;;;;;8.18;1.80;;;14.30;99.90;;;;;;5093710;28;20048;-46
2022/07/08 05:46:48;;;;;;;7.13;1.40;;;14.40;99.90;;;;;;5083655;28;20040;-46
2022/07/08 05:49:14;;;;;;;7.23;1.57;;;14.50;99.90;;;;;;5073015;28;20040;-47
2022/07/08 05:51:39;;;;;;;11.50;1.92;;;14.60;99.90;;;;;;5072058;28;20333;-47
2022/07/08 05:54:05;;;;;;;7.25;1.48;;;14.70;99.90;;;;;;5072103;28;20128;-47
2022/07/08 05:56:30;;;;;;;6.33;1.10;;;14.80;99.90;;;;;;5075542;28;20039;-49
2022/07/08 05:58:56;;;;;;;12.23;2.25;;;14.90;99.90;;;;;;5093189;28;20270;-48
2022/07/08 06:01:21;;;;;;;6.90;2.17;;;14.90;99.90;;;;;;5092515;28;20036;-46
2022/07/08 06:03:47;;;;;;;9.32;1.40;;;15.00;99.90;;;;;;5076968;28;20119;-52
2022/07/08 06:06:12;;;;;;;8.55;1.25;;;15.10;99.90;;;;;;5078759;28;20037;-49
2022/07/08 06:08:38;;;;;;;8.13;0.95;;;15.10;99.90;;;;;;5085772;28;20485;-47
2022/07/08 06:11:04;;;;;;;6.15;2.08;;;15.20;99.90;;;;;;5072251;28;20036;-47
2022/07/08 06:13:29;;;;;;;8.80;1.33;;;15.30;99.90;;;;;;5070423;28;20539;-48
2022/07/08 06:15:55;;;;;;;9.05;1.67;;;15.30;99.90;;;;;;5079824;28;20044;-49
2022/07/08 06:18:21;;;;;;;9.27;1.88;;;15.40;99.90;;;;;;5079416;28;20039;-50
2022/07/08 06:20:46;;;;;;;13.00;1.40;;;15.40;99.90;;;;;;5078679;28;20509;-50
2022/07/08 06:23:12;;;;;;;9.65;1.63;;;15.40;99.90;;;;;;5074584;28;20093;-46
2022/07/08 06:25:38;;;;;;;10.68;1.00;;;15.50;99.90;;;;;;5084563;28;20518;-46
2022/07/08 06:28:04;;;;;;;4.88;1.80;;;15.60;99.90;;;;;;5088607;28;20028;-52
2022/07/08 06:30:29;;;;;;;8.20;0.50;;;15.60;99.90;;;;;;5072144;28;20410;-52
2022/07/08 06:32:55;;;;;;;12.57;0.93;;;15.60;99.90;;;;;;5071052;28;20498;-50
2022/07/08 06:35:21;;;;;;;7.55;1.45;;;15.70;99.90;;;;;;5072521;28;20405;-47
2022/07/08 06:37:47;;;;;;;11.10;1.92;;;15.70;99.90;;;;;;5073352;28;20557;-47
2022/07/08 06:40:12;;;;;;;;;;;15.80;99.90;;;;;;5075148;28;20047;-51
2022/07/08 06:42:38;;;;;;;8.82;1.52;;;15.90;99.90;;;;;;5071337;28;19916;-51
2022/07/08 06:45:05;;;;;;;7.28;0.68;;;15.90;99.90;;;;;;5071231;28;20098;-47
2022/07/08 06:47:30;;;;;;;13.52;1.15;;;16.00;99.90;;;;;;5071828;28;20044;-47
2022/07/08 06:49:56;;;;;;;8.95;1.10;;;16.00;99.90;;;;;;5072545;28;20032;-50
2022/07/08 06:52:21;;;;;;;4.38;0.77;;;16.10;99.90;;;;;;5080164;28;20035;-49
2022/07/08 06:54:47;;;;;;;7.60;1.38;;;16.20;99.90;;;;;;5074778;28;20082;-47
2022/07/08 06:57:14;;;;;;;5.43;0.77;;;16.20;99.90;;;;;;5089930;28;20032;-47
2022/07/08 06:59:39;;;;;;;10.00;0.90;;;16.30;99.90;;;;;;5079583;28;20443;-51
2022/07/08 07:02:05;;;;;;;5.68;0.88;;;16.30;99.90;;;;;;5087097;28;20044;-49
2022/07/08 07:04:31;;;;;;;2.40;0.50;;;16.30;99.90;;;;;;5089944;28;20074;-50
2022/07/08 07:06:56;;;;;;;12.38;1.20;;;16.40;99.90;;;;;;5081365;28;20032;-50
2022/07/08 07:09:22;;;;;;;4.97;1.73;;;16.40;99.90;;;;;;5072613;28;20076;-48
2022/07/08 07:11:48;;;;;;;12.48;1.45;;;16.40;99.90;;;;;;5084270;28;20128;-50
2022/07/08 07:14:14;;;;;;;9.68;1.27;;;16.50;99.90;;;;;;5080495;28;20052;-52
2022/07/08 07:16:39;;;;;;;7.93;1.48;;;16.50;99.90;;;;;;5073961;28;20029;-50
2022/07/08 07:19:05;;;;;;;13.38;2.13;;;16.60;99.90;;;;;;5085427;28;20544;-47
2022/07/08 07:21:30;;;;;;;20.90;2.72;;;16.60;99.90;;;;;;5075208;28;20051;-48
2022/07/08 07:23:56;;;;;;;15.20;1.80;;;16.60;99.90;;;;;;5088668;28;20032;-49
2022/07/08 07:26:21;;;;;;;11.50;0.90;;;16.60;99.90;;;;;;5088606;28;20139;-48
2022/07/08 07:28:47;;;;;;;8.57;1.05;;;16.70;99.90;;;;;;5070294;28;20321;-49
2022/07/08 07:31:13;;;;;;;10.73;1.75;;;16.60;99.90;;;;;;5076799;28;20033;-49
2022/07/08 07:33:39;;;;;;;8.98;1.77;;;16.70;99.90;;;;;;5080219;28;20038;-51
2022/07/08 07:36:04;;;;;;;;;;;16.70;99.90;;;;;;5071834;28;20056;-48
2022/07/08 07:38:30;;;;;;;14.38;1.90;;;16.70;99.90;;;;;;5083834;28;19916;-47
2022/07/08 07:40:56;;;;;;;15.40;2.83;;;16.70;99.90;;;;;;5088875;28;20046;-47
2022/07/08 07:43:21;;;;;;;10.13;1.52;;;16.80;99.90;;;;;;5082002;28;20028;-48
2022/07/08 07:45:47;;;;;;;27.25;6.60;;;16.90;99.90;;;;;;5071031;28;20032;-54
2022/07/08 07:48:12;;;;;;;14.00;2.10;;;16.90;99.90;;;;;;5085190;28;20035;-53
2022/07/08 07:50:38;;;;;;;5.45;1.13;;;16.90;99.90;;;;;;5084834;28;20086;-48
2022/07/08 07:53:03;;;;;;;6.47;1.02;;;16.90;99.90;;;;;;5076134;28;20046;-47
2022/07/08 07:55:29;;;;;;;18.00;1.35;;;16.90;99.90;;;;;;5069951;28;20044;-50
2022/07/08 07:57:55;;;;;;;7.93;1.25;;;16.90;99.90;;;;;;5084477;28;20047;-48
2022/07/08 08:00:21;;;;;;;9.43;1.05;;;16.90;99.90;;;;;;5078327;28;20037;-53
2022/07/08 08:02:47;;;;;;;13.75;1.42;;;16.90;99.90;;;;;;5070424;28;20120;-47
2022/07/08 08:05:12;;;;;;;18.90;2.40;;;16.90;99.90;;;;;;5070777;28;20072;-47
2022/07/08 08:07:39;;;;;;;37.17;3.53;;;17.00;99.90;;;;;;5070603;28;20044;-49
2022/07/08 08:10:06;;;;;;;35.08;3.20;;;17.00;99.90;;;;;;5072326;28;20473;-51
2022/07/08 08:12:32;;;;;;;18.15;2.45;;;17.00;99.90;;;;;;5077254;28;20060;-47
2022/07/08 08:14:57;;;;;;;13.30;1.25;;;17.00;99.90;;;;;;5069252;28;20102;-47
2022/07/08 08:17:23;;;;;;;7.63;1.17;;;17.10;99.90;;;;;;5070111;28;20036;-51
2022/07/08 08:19:49;;;;;;;8.05;1.58;;;17.10;99.90;;;;;;5069104;28;20082;-47
2022/07/08 08:22:15;;;;;;;12.90;1.20;;;17.10;99.90;;;;;;5073306;28;20050;-47
2022/07/08 08:24:42;;;;;;;8.63;1.23;;;17.10;99.90;;;;;;5081964;28;20044;-46
2022/07/08 08:27:08;;;;;;;6.90;0.60;;;17.10;99.90;;;;;;5074889;28;20043;-47
2022/07/08 08:29:33;;;;;;;8.90;1.58;;;17.10;99.90;;;;;;5083927;28;20039;-47
2022/07/08 08:31:59;;;;;;;6.18;0.63;;;17.10;99.90;;;;;;5088635;28;20551;-47
2022/07/08 08:34:25;;;;;;;6.68;0.90;;;17.20;99.90;;;;;;5069402;28;20075;-52
2022/07/08 08:36:50;;;;;;;5.32;0.90;;;17.20;99.90;;;;;;5069502;28;20075;-53
2022/07/08 08:39:16;;;;;;;9.55;0.85;;;17.10;99.90;;;;;;5085560;28;20032;-47
2022/07/08 08:41:41;;;;;;;11.88;1.15;;;17.20;99.90;;;;;;5072790;28;20044;-50
2022/07/08 08:44:08;;;;;;;12.23;1.83;;;17.20;99.90;;;;;;5075042;28;20052;-49
2022/07/08 08:46:35;;;;;;;11.82;1.92;;;17.20;99.90;;;;;;5075235;28;20040;-47
2022/07/08 08:49:01;;;;;;;2.85;0.70;;;17.20;99.90;;;;;;5076026;28;20056;-48
2022/07/08 08:51:30;;;;;;;;;;;17.20;99.90;;;;;;5088970;28;20040;-48
2022/07/08 08:53:58;;;;;;;5.40;0.60;;;17.30;99.90;;;;;;5075398;28;20166;-48
2022/07/08 08:56:25;;;;;;;5.25;0.80;;;17.30;99.90;;;;;;5070932;28;20040;-47
2022/07/08 08:58:53;;;;;;;8.15;1.02;;;17.30;99.90;;;;;;5082523;28;20329;-51
2022/07/08 09:01:19;;;;;;;6.72;0.93;;;17.30;99.90;;;;;;5087552;28;20110;-49
2022/07/08 09:03:45;;;;;;;;;;;17.40;99.90;;;;;;5078149;28;20036;-47
2022/07/08 09:06:11;;;;;;;6.93;1.48;;;17.40;99.90;;;;;;5068991;28;19916;-51
2022/07/08 09:08:36;;;;;;;6.25;1.35;;;17.40;99.90;;;;;;5082599;28;20043;-53
2022/07/08 09:11:03;;;;;;;5.85;1.42;;;17.50;99.90;;;;;;5072319;28;20520;-53
2022/07/08 09:13:29;;;;;;;9.38;1.65;;;17.60;99.90;;;;;;5074727;28;20068;-52
2022/07/08 09:15:59;;;;;;;5.35;1.17;;;17.70;99.90;;;;;;5069364;28;20707;-51
2022/07/08 09:18:30;;;;;;;11.02;1.08;;;17.80;99.90;;;;;;5074182;28;20513;-53
2022/07/08 09:20:57;;;;;;;11.07;2.25;;;17.90;99.90;;;;;;5070361;28;20059;-50
2022/07/08 09:23:29;;;;;;;9.07;1.35;;;18.00;99.90;;;;;;5074122;28;20028;-52
2022/07/08 09:26:03;;;;;;;6.18;1.10;;;18.00;99.90;;;;;;5074366;28;20033;-54
2022/07/08 09:28:34;;;;;;;7.82;1.08;;;18.10;99.90;;;;;;5085627;28;20100;-53
2022/07/08 09:31:05;;;;;;;7.88;0.90;;;18.10;99.90;;;;;;5089177;28;20118;-51
2022/07/08 09:33:32;;;;;;;6.03;0.80;;;18.10;99.90;;;;;;5088604;28;20493;-52
2022/07/08 09:36:00;;;;;;;13.32;1.40;;;18.10;99.90;;;;;;5087680;28;20397;-52
2022/07/08 09:38:31;;;;;;;7.07;1.30;;;18.10;99.90;;;;;;5089181;28;20044;-50
2022/07/08 09:40:59;;;;;;;6.65;1.00;;;18.10;99.90;;;;;;5085710;28;20532;-52
2022/07/08 09:43:26;;;;;;;5.07;1.30;;;18.10;99.90;;;;;;5076610;28;20111;-52
2022/07/08 09:45:52;;;;;;;5.55;1.45;;;18.20;99.90;;;;;;5072793;28;20072;-51
2022/07/08 09:48:18;;;;;;;;;;;18.20;99.90;;;;;;5069616;28;20508;-53
2022/07/08 09:50:46;;;;;;;9.40;1.77;;;18.30;99.90;;;;;;5079645;28;19971;-52
2022/07/08 09:53:16;;;;;;;9.20;1.48;;;18.30;99.90;;;;;;5086844;28;20570;-52
2022/07/08 09:55:43;;;;;;;3.22;0.82;;;18.30;99.90;;;;;;5087231;28;20093;-52
2022/07/08 09:58:12;;;;;;;4.32;1.50;;;18.30;99.90;;;;;;5071593;28;20048;-51
2022/07/08 10:00:39;;;;;;;8.18;1.45;;;18.30;99.90;;;;;;5072320;28;20119;-51
2022/07/08 10:03:05;;;;;;;5.07;1.08;;;18.30;99.90;;;;;;5078583;28;20389;-53
2022/07/08 10:05:31;;;;;;;7.70;1.75;;;18.40;99.90;;;;;;5079209;28;20044;-52
2022/07/08 10:07:57;;;;;;;7.88;1.05;;;18.40;99.90;;;;;;5075913;28;20036;-51
2022/07/08 10:10:24;;;;;;;6.40;0.98;;;18.40;99.90;;;;;;5088582;28;20036;-53
2022/07/08 10:12:53;;;;;;;8.05;1.42;;;18.40;99.90;;;;;;5081544;28;20170;-51
2022/07/08 10:15:19;;;;;;;9.85;1.35;;;18.40;99.90;;;;;;5072680;28;20044;-53
2022/07/08 10:17:47;;;;;;;7.18;1.73;;;18.50;99.90;;;;;;5080771;28;20040;-51
2022/07/08 10:20:16;;;;;;;5.70;1.38;;;18.50;99.90;;;;;;5072272;28;20414;-50
2022/07/08 10:22:45;;;;;;;5.53;1.77;;;18.50;99.90;;;;;;5090769;28;20040;-52
2022/07/08 10:25:11;;;;;;;12.27;1.67;;;18.60;99.90;;;;;;5072095;28;20055;-50
2022/07/08 10:27:38;;;;;;;4.00;1.00;;;18.60;99.90;;;;;;5084931;28;20115;-51
2022/07/08 10:30:13;;;;;;;15.40;1.98;;;18.60;99.90;;;;;;5092346;28;20050;-52
2022/07/08 10:32:39;;;;;;;12.07;1.63;;;18.60;99.90;;;;;;5073309;28;20048;-52
2022/07/08 10:35:10;;;;;;;9.85;1.38;;;18.60;99.90;;;;;;5089698;28;20359;-52
2022/07/08 10:37:55;;;;;;;6.70;1.63;;;18.60;99.90;;;;;;5079742;28;20051;-53
2022/07/08 10:40:42;;;;;;;6.35;1.67;;;18.70;99.90;;;;;;5073455;28;20051;-50
2022/07/08 10:43:25;;;;;;;7.65;1.38;;;18.70;99.90;;;;;;5085257;28;20462;-54
2022/07/08 10:45:57;;;;;;;7.72;1.80;;;18.70;99.90;;;;;;5071569;28;20044;-51
2022/07/08 10:48:27;;;;;;;5.28;1.50;;;18.70;99.90;;;;;;5076046;28;20555;-52
2022/07/08 10:50:52;;;;;;;6.20;1.63;;;18.70;99.90;;;;;;5078099;28;20056;-52
2022/07/08 10:53:18;;;;;;;6.47;1.77;;;18.70;99.90;;;;;;5068321;28;20036;-51
2022/07/08 10:55:43;;;;;;;6.68;1.13;;;18.80;99.90;;;;;;5080108;28;20584;-52
2022/07/08 10:58:09;;;;;;;2.65;1.02;;;18.80;99.90;;;;;;5082248;28;20032;-52
2022/07/08 11:00:36;;;;;;;6.25;0.90;;;18.90;99.90;;;;;;5081314;28;20508;-52
2022/07/08 11:03:03;;;;;;;10.18;1.17;;;18.90;99.90;;;;;;5079482;28;20519;-50
2022/07/08 11:05:39;;;;;;;4.07;1.17;;;19.00;99.90;;;;;;5081603;28;20036;-51
2022/07/08 11:08:20;;;;;;;5.43;1.02;;;19.00;99.90;;;;;;5069043;28;20097;-49
2022/07/08 11:10:51;;;;;;;5.50;0.93;;;19.20;99.90;;;;;;5077667;28;20079;-52
2022/07/08 11:13:19;;;;;;;7.57;1.02;;;19.20;99.90;;;;;;5077358;28;20259;-52
2022/07/08 11:15:44;;;;;;;5.03;0.90;;;19.30;99.90;;;;;;5079339;28;20436;-49
2022/07/08 11:18:10;;;;;;;7.18;1.23;;;19.30;99.90;;;;;;5087869;28;20040;-52
2022/07/08 11:20:36;;;;;;;7.20;1.42;;;19.40;99.90;;;;;;5078853;28;20051;-52
2022/07/08 11:23:05;;;;;;;9.57;1.25;;;19.50;99.90;;;;;;5071280;28;20055;-52
2022/07/08 11:25:31;;;;;;;4.80;0.80;;;19.50;99.90;;;;;;5077977;28;20466;-52
2022/07/08 11:27:57;;;;;;;9.77;1.45;;;19.60;99.90;;;;;;5069841;28;20032;-53
2022/07/08 11:30:22;;;;;;;;;;;19.70;99.90;;;;;;5080624;28;20039;-52
2022/07/08 11:32:50;;;;;;;2.63;0.73;;;19.70;99.90;;;;;;5088573;28;20416;-48
2022/07/08 11:35:17;;;;;;;5.60;1.38;;;19.80;99.90;;;;;;5073084;28;20056;-52
2022/07/08 11:37:46;;;;;;;6.32;1.08;;;19.80;99.90;;;;;;5075725;28;20049;-52
2022/07/08 11:40:13;;;;;;;7.90;1.70;;;19.80;99.90;;;;;;5074963;28;20029;-53
2022/07/08 11:42:40;;;;;;;6.57;1.42;;;19.80;99.90;;;;;;5089136;28;20031;-49
2022/07/08 11:45:08;;;;;;;6.80;1.20;;;19.80;99.90;;;;;;5081306;28;20048;-49
2022/07/08 11:47:34;;;;;;;6.50;1.13;;;20.00;99.90;;;;;;5073583;28;20055;-52
2022/07/08 11:50:01;;;;;;;6.43;1.10;;;20.00;99.90;;;;;;5073485;28;20040;-53
2022/07/08 11:52:28;;;;;;;6.50;1.30;;;20.00;99.90;;;;;;5076856;28;20498;-52
2022/07/08 11:54:54;;;;;;;5.88;1.25;;;20.00;99.90;;;;;;5079999;28;20043;-52
2022/07/08 11:57:20;;;;;;;7.47;0.93;;;20.00;99.90;;;;;;5077998;28;20298;-51
2022/07/08 11:59:48;;;;;;;8.48;1.58;;;20.10;99.90;;;;;;5074825;28;20072;-51
2022/07/08 12:02:20;;;;;;;3.83;1.52;;;20.10;99.90;;;;;;5083511;28;20028;-50
2022/07/08 12:04:51;;;;;;;8.55;1.40;;;20.20;99.90;;;;;;5073094;28;20102;-53
2022/07/08 12:07:34;;;;;;;8.15;1.88;;;20.30;99.90;;;;;;5075220;28;20039;-52
2022/07/08 12:10:03;;;;;;;7.40;1.17;;;20.30;99.90;;;;;;5075286;28;20279;-50
2022/07/08 12:12:31;;;;;;;7.07;1.42;;;20.30;99.90;;;;;;5089451;28;20055;-50
2022/07/08 12:15:08;;;;;;;5.30;1.90;;;20.30;99.90;;;;;;5089446;28;20122;-51
2022/07/08 12:17:34;;;;;;;10.63;1.50;;;20.30;99.90;;;;;;5090580;28;20078;-52
2022/07/08 12:19:59;;;;;;;7.57;2.45;;;20.30;99.90;;;;;;5090352;28;20032;-48
2022/07/08 12:22:44;;;;;;;;;;;20.30;99.90;;;;;;5090184;28;20416;-48
2022/07/08 12:25:10;;;;;;;10.35;1.35;;;20.30;99.90;;;;;;5090144;28;19920;-51
2022/07/08 12:27:35;;;;;;;7.72;1.27;;;20.40;99.90;;;;;;5089990;28;20048;-48
2022/07/08 12:30:02;;;;;;;;;;;20.40;99.90;;;;;;5090526;28;20044;-48
2022/07/08 12:32:45;;;;;;;13.25;2.55;;;20.60;99.90;;;;;;5090062;28;19989;-51
2022/07/08 12:35:12;;;;;;;6.60;1.45;;;20.70;99.90;;;;;;5089933;28;20040;-52
2022/07/08 12:37:38;;;;;;;4.93;1.40;;;20.80;99.90;;;;;;5089838;28;20043;-49
2022/07/08 12:40:40;;;;;;;5.32;1.70;;;21.00;99.90;;;;;;5090157;28;20051;-50
2022/07/08 12:43:10;;;;;;;5.82;1.00;;;21.10;99.90;;;;;;5089005;28;20043;-52
2022/07/08 12:45:37;;;;;;;5.93;0.82;;;21.20;99.90;;;;;;5090310;28;20051;-52